Terminal Aerodrome Forecast
Issued by NWS Tampa Bay Area, FL

Home | Current Version | Previous Version | Text Only | Print | Product List | Glossary On
Versions: 1 2 3 4 5 6 7 8 9 10 11 12 13 14 15 16
351
FTUS42 KTBW 181720
TAFFMY
TAF
KFMY 181720Z 1818/1918 17004KT P6SM SCT030
     FM182000 28006KT P6SM SCT050 SCT250
     FM190000 VRB03KT P6SM FEW050 SCT250
     FM190700 VRB03KT 3SM BR BKN010
     FM190900 VRB03KT 1SM BR BKN005=

USA.gov is the U.S. government's official web portal to all federal, state and local government web resources and services.